Archival Weather

Republic

Farmingdale, New York (KFRG)

Report from: Saturday, February 24, 2024 7:53 PM EST
Current time: Friday, June 21, 2024 4:44 AM EDT

Current weather – Weather history – Daily summaries
Weather forecast

Temperature1.1°C (34.0°F)
Wind chill-3.6°C (25.5°F)
Dew point-12.8°C (9.0°F)
Winds 10 kts (5.1 m/s, 11.5 mph) North (350°)
Visibility10 mi. (16.1 km)
Clouds Sky clear
Altimeter29.89 in.Hg (1012 mB)
Relative humidity35 %
Density altitude-1,620 ft. (-494 m)
Sea-level pressure101.2 kPa (1012 mB, 29.89 in.Hg)
Remarks Fully automated report
Automated weather observing station without precipitation discriminator
Freezing rain sensor not operating
Flight conditions Visual Meteorological Conditions
Raw dataKFRG 250053Z AUTO 35010KT 10SM CLR 01/M13 A2989 RMK AO1 SLP123 T00111128 FZRANO
An error has occurred. This application may no longer respond until reloaded. Reload 🗙